createdAt,value
2023-03-02T00:01:31.512Z,78.70
2023-03-02T00:04:01.287Z,79.80
2023-03-02T00:06:31.407Z,78.70
2023-03-02T00:09:00.752Z,79.40
2023-03-02T00:11:33.773Z,79.20
2023-03-02T00:14:01.157Z,81.00
2023-03-02T00:16:28.637Z,77.80
2023-03-02T00:18:56.049Z,78.90
2023-03-02T00:21:24.650Z,78.60
2023-03-02T00:23:52.808Z,79.90
2023-03-02T00:26:20.644Z,80.30
2023-03-02T00:28:48.301Z,80.10
2023-03-02T00:31:16.328Z,80.00
2023-03-02T00:33:43.905Z,80.60
2023-03-02T00:36:18.579Z,80.10
2023-03-02T00:38:46.264Z,82.50
2023-03-02T00:41:14.882Z,80.70
2023-03-02T00:43:42.757Z,80.50
2023-03-02T00:46:22.835Z,80.70
2023-03-02T00:48:51.391Z,82.10
2023-03-02T00:51:19.080Z,80.80
2023-03-02T00:53:46.855Z,80.00
2023-03-02T00:56:14.372Z,80.80
2023-03-02T00:58:47.567Z,80.70
2023-03-02T01:01:17.137Z,80.80
2023-03-02T01:03:48.624Z,80.30
2023-03-02T01:06:18.906Z,80.70
2023-03-02T01:08:46.758Z,81.80
2023-03-02T01:11:21.620Z,81.70
2023-03-02T01:13:50.237Z,82.10
2023-03-02T01:16:17.821Z,81.80
2023-03-02T01:18:45.457Z,82.50
2023-03-02T01:21:15.577Z,81.90
2023-03-02T01:23:43.165Z,83.00
2023-03-02T01:26:10.765Z,82.00
2023-03-02T01:28:38.213Z,81.50
2023-03-02T01:31:05.814Z,81.30
2023-03-02T01:33:33.399Z,82.20
2023-03-02T01:36:01.235Z,81.70
2023-03-02T01:38:29.342Z,82.00
2023-03-02T01:40:56.889Z,82.30
2023-03-02T01:43:25.670Z,83.90
2023-03-02T01:46:21.773Z,81.20
2023-03-02T01:49:05.438Z,85.20
2023-03-02T01:51:53.418Z,83.20
2023-03-02T01:54:23.511Z,84.50
2023-03-02T01:57:02.398Z,83.80
2023-03-02T01:59:33.353Z,83.60
2023-03-02T02:02:06.349Z,83.90
2023-03-02T02:04:37.430Z,83.70
2023-03-02T02:07:07.551Z,83.60
2023-03-02T02:09:46.167Z,84.30
2023-03-02T02:12:21.742Z,84.80
2023-03-02T02:14:50.475Z,83.90
2023-03-02T02:17:19.976Z,84.90
2023-03-02T02:20:02.251Z,84.00
2023-03-02T02:22:43.133Z,86.40
2023-03-02T02:25:21.022Z,85.80
2023-03-02T02:27:50.915Z,85.10
2023-03-02T02:30:21.402Z,83.30
2023-03-02T02:32:52.222Z,84.40
2023-03-02T02:35:27.347Z,84.90
2023-03-02T02:38:01.269Z,84.00
2023-03-02T02:40:50.044Z,86.10
2023-03-02T02:43:21.996Z,85.50
2023-03-02T02:45:56.667Z,84.80
2023-03-02T02:48:31.044Z,84.50
2023-03-02T02:51:03.242Z,86.50
2023-03-02T02:53:47.342Z,85.30
2023-03-02T02:56:16.652Z,85.80
2023-03-02T02:58:49.794Z,85.40
2023-03-02T03:01:19.403Z,86.10
2023-03-02T03:03:59.080Z,86.00
2023-03-02T03:06:38.126Z,85.40
2023-03-02T03:09:07.730Z,85.30
2023-03-02T03:11:43.350Z,85.00
2023-03-02T03:14:21.327Z,85.70
2023-03-02T03:16:52.005Z,84.20
2023-03-02T03:19:23.485Z,84.70
2023-03-02T03:21:54.653Z,86.70
2023-03-02T03:24:23.704Z,85.90
2023-03-02T03:26:55.251Z,84.60
2023-03-02T03:29:25.263Z,85.60
2023-03-02T03:31:56.861Z,85.70
2023-03-02T03:34:25.604Z,86.00
2023-03-02T03:36:53.775Z,85.70
2023-03-02T03:39:21.737Z,85.50
2023-03-02T03:41:50.303Z,85.20
2023-03-02T03:44:17.903Z,84.80
2023-03-02T03:46:45.689Z,85.90
2023-03-02T03:49:13.263Z,86.30
2023-03-02T03:51:40.942Z,86.60
2023-03-02T03:54:09.668Z,86.10
2023-03-02T03:56:43.019Z,86.70
2023-03-02T03:59:13.800Z,86.70
2023-03-02T04:01:52.617Z,86.20
2023-03-02T04:04:23.780Z,87.00
2023-03-02T04:06:52.028Z,86.60
2023-03-02T04:09:20.727Z,85.80
2023-03-02T04:11:51.033Z,85.60
2023-03-02T04:14:20.470Z,86.90
2023-03-02T04:16:47.970Z,87.00
2023-03-02T04:19:17.597Z,85.70
2023-03-02T04:21:50.877Z,85.80
2023-03-02T04:24:21.043Z,86.90
2023-03-02T04:26:49.638Z,87.10
2023-03-02T04:29:18.505Z,87.10
2023-03-02T04:31:46.116Z,87.90
2023-03-02T04:34:13.885Z,88.00
2023-03-02T04:36:44.055Z,87.30
2023-03-02T04:39:16.228Z,86.50
2023-03-02T04:41:47.318Z,88.60
2023-03-02T04:44:15.824Z,86.60
2023-03-02T04:46:44.814Z,86.30
2023-03-02T04:49:14.285Z,85.70
2023-03-02T04:51:44.777Z,87.20
2023-03-02T04:54:21.983Z,88.10
2023-03-02T04:56:51.441Z,87.30
2023-03-02T04:59:20.982Z,85.90
2023-03-02T05:01:48.880Z,86.80
2023-03-02T05:04:16.752Z,86.40
2023-03-02T05:06:44.193Z,86.30
2023-03-02T05:09:11.937Z,86.30
2023-03-02T05:11:39.707Z,87.40
2023-03-02T05:14:10.831Z,87.40
2023-03-02T05:16:40.656Z,88.60
2023-03-02T05:19:09.927Z,88.50
2023-03-02T05:21:37.374Z,87.60
2023-03-02T05:24:05.183Z,86.40
2023-03-02T05:26:33.062Z,86.80
2023-03-02T05:29:00.629Z,87.50
2023-03-02T05:31:41.385Z,86.80
2023-03-02T05:34:11.425Z,87.50
2023-03-02T05:36:39.331Z,87.50
2023-03-02T05:39:08.283Z,86.50
2023-03-02T05:41:36.819Z,87.50
2023-03-02T05:44:06.050Z,87.70
2023-03-02T05:46:34.054Z,87.30
2023-03-02T05:49:01.631Z,86.60
2023-03-02T05:51:29.110Z,87.80
2023-03-02T05:53:56.491Z,87.50
2023-03-02T05:56:23.950Z,87.70
2023-03-02T05:58:51.311Z,87.20
2023-03-02T06:01:18.881Z,87.20
2023-03-02T06:03:46.371Z,87.00
2023-03-02T06:06:14.510Z,87.20
2023-03-02T06:08:43.188Z,87.60
2023-03-02T06:11:11.625Z,88.90
2023-03-02T06:13:39.451Z,88.40
2023-03-02T06:16:07.662Z,88.70
2023-03-02T06:18:35.875Z,87.90
2023-03-02T06:21:04.049Z,90.00
2023-03-02T06:23:32.698Z,87.90
2023-03-02T06:26:00.277Z,89.40
2023-03-02T06:28:27.723Z,89.10
2023-03-02T06:30:55.198Z,88.20
2023-03-02T06:33:23.566Z,87.90
2023-03-02T06:35:51.176Z,88.50
2023-03-02T06:38:18.811Z,88.60
2023-03-02T06:40:46.564Z,89.20
2023-03-02T06:43:14.298Z,88.80
2023-03-02T06:45:41.784Z,88.30
2023-03-02T06:48:09.326Z,88.70
2023-03-02T06:50:36.680Z,88.50
2023-03-02T06:53:04.079Z,88.40
2023-03-02T06:55:31.618Z,89.00
2023-03-02T06:57:59.260Z,88.50
2023-03-02T07:00:28.231Z,88.70
2023-03-02T07:02:56.717Z,88.60
2023-03-02T07:05:24.744Z,89.70
2023-03-02T07:07:52.364Z,89.20
2023-03-02T07:10:20.055Z,88.60
2023-03-02T07:12:47.427Z,89.10
2023-03-02T07:15:14.873Z,89.50
2023-03-02T07:17:44.284Z,88.60
2023-03-02T07:20:17.892Z,90.50
2023-03-02T07:22:45.576Z,90.60
2023-03-02T07:25:13.668Z,89.10
2023-03-02T07:27:41.103Z,90.10
2023-03-02T07:30:09.496Z,89.00
2023-03-02T07:32:38.447Z,89.60
2023-03-02T07:35:06.439Z,90.40
2023-03-02T07:37:33.947Z,89.40
2023-03-02T07:40:01.957Z,89.80
2023-03-02T07:42:31.888Z,88.90
2023-03-02T07:45:01.730Z,90.20
2023-03-02T07:47:29.129Z,89.80
2023-03-02T07:49:56.698Z,89.00
2023-03-02T07:52:24.408Z,90.00
2023-03-02T07:54:51.984Z,88.80
2023-03-02T07:57:19.597Z,89.20
2023-03-02T07:59:46.970Z,87.90
2023-03-02T08:02:16.309Z,89.10
2023-03-02T08:04:44.228Z,89.80
2023-03-02T08:07:11.768Z,89.90
2023-03-02T08:09:40.154Z,88.20
2023-03-02T08:12:07.756Z,89.30
2023-03-02T08:14:35.422Z,88.20
2023-03-02T08:17:05.235Z,88.60
2023-03-02T08:19:33.420Z,89.50
2023-03-02T08:22:02.112Z,87.90
2023-03-02T08:24:29.775Z,88.60
2023-03-02T08:27:03.473Z,87.50
2023-03-02T08:29:30.994Z,89.80
2023-03-02T08:31:59.102Z,87.90
2023-03-02T08:34:28.137Z,87.30
2023-03-02T08:36:55.563Z,88.70
2023-03-02T08:39:23.619Z,87.50
2023-03-02T08:41:56.734Z,87.90
2023-03-02T08:44:24.558Z,89.80
2023-03-02T08:46:52.265Z,88.70
2023-03-02T08:49:19.878Z,87.70
2023-03-02T08:51:53.342Z,87.40
2023-03-02T08:54:22.176Z,87.40
2023-03-02T08:56:50.335Z,87.30
2023-03-02T08:59:18.302Z,87.20
2023-03-02T09:01:45.778Z,86.60
2023-03-02T09:04:13.629Z,86.60
2023-03-02T09:06:44.242Z,86.70
2023-03-02T09:09:13.731Z,87.40
2023-03-02T09:11:42.695Z,87.00
2023-03-02T09:14:11.176Z,87.10
2023-03-02T09:16:38.797Z,85.70
2023-03-02T09:19:06.368Z,86.90
2023-03-02T09:21:34.214Z,85.70
2023-03-02T09:24:01.982Z,86.20
2023-03-02T09:26:29.469Z,85.60
2023-03-02T09:28:57.003Z,86.50
2023-03-02T09:31:24.833Z,86.90
2023-03-02T09:33:52.306Z,85.60
2023-03-02T09:36:22.431Z,85.30
2023-03-02T09:38:50.119Z,86.20
2023-03-02T09:41:20.548Z,85.20
2023-03-02T09:44:12.138Z,86.60
2023-03-02T09:46:48.079Z,85.90
2023-03-02T09:49:15.556Z,84.20
2023-03-02T09:52:11.762Z,84.90
2023-03-02T09:54:40.795Z,85.80
2023-03-02T09:57:29.391Z,85.50
2023-03-02T10:00:18.686Z,86.40
2023-03-02T10:02:54.046Z,85.10
2023-03-02T10:05:40.665Z,84.70
2023-03-02T10:08:30.772Z,85.40
2023-03-02T10:11:16.324Z,87.10
2023-03-02T10:13:47.828Z,85.50
2023-03-02T10:16:44.648Z,84.20
2023-03-02T10:19:25.260Z,85.00
2023-03-02T10:22:16.417Z,84.60
2023-03-02T10:24:57.919Z,84.40
2023-03-02T10:27:31.237Z,84.40
2023-03-02T10:30:14.534Z,84.20
2023-03-02T10:32:45.909Z,84.70
2023-03-02T10:35:23.245Z,84.70
2023-03-02T10:37:55.260Z,84.50
2023-03-02T10:40:53.219Z,83.90
2023-03-02T10:43:28.070Z,83.90
2023-03-02T10:46:18.601Z,84.50
2023-03-02T10:49:01.164Z,83.20
2023-03-02T10:51:30.777Z,83.40
2023-03-02T10:54:14.632Z,82.90
2023-03-02T10:56:44.024Z,83.60
2023-03-02T10:59:29.665Z,82.30
2023-03-02T11:02:17.430Z,84.00
2023-03-02T11:04:45.583Z,82.40
2023-03-02T11:07:21.890Z,81.90
2023-03-02T11:10:02.656Z,82.80
2023-03-02T11:12:31.737Z,82.80
2023-03-02T11:15:15.988Z,81.30
2023-03-02T11:17:46.185Z,81.40
2023-03-02T11:20:26.103Z,80.80
2023-03-02T11:23:10.389Z,81.60
2023-03-02T11:25:45.157Z,81.50
2023-03-02T11:28:21.704Z,81.20
2023-03-02T11:30:52.674Z,80.70
2023-03-02T11:33:29.880Z,80.60
2023-03-02T11:36:06.388Z,81.30
2023-03-02T11:38:56.181Z,81.10
2023-03-02T11:41:29.975Z,81.90
2023-03-02T11:44:01.921Z,80.70
2023-03-02T11:46:31.112Z,80.10
2023-03-02T11:49:06.894Z,79.70
2023-03-02T11:51:42.374Z,80.50
2023-03-02T11:54:43.556Z,79.70
2023-03-02T11:57:21.053Z,79.90
2023-03-02T11:59:50.580Z,80.30
2023-03-02T12:02:19.214Z,79.20
2023-03-02T12:04:47.789Z,78.70
2023-03-02T12:07:27.732Z,78.40
2023-03-02T12:10:08.511Z,80.80
2023-03-02T12:12:44.222Z,78.90
2023-03-02T12:15:37.381Z,79.10
2023-03-02T12:18:23.183Z,78.80
2023-03-02T12:21:06.529Z,78.80
2023-03-02T12:23:44.315Z,79.40
2023-03-02T12:26:21.289Z,78.30
2023-03-02T12:29:21.607Z,79.20
2023-03-02T12:31:57.089Z,78.80
2023-03-02T12:34:24.613Z,78.60
2023-03-02T12:37:00.129Z,77.00
2023-03-02T12:39:27.611Z,77.20
2023-03-02T12:42:40.999Z,76.10
2023-03-02T12:45:14.482Z,77.50
2023-03-02T12:47:46.691Z,75.30
2023-03-02T12:50:37.830Z,77.70
2023-03-02T12:53:15.135Z,78.10
2023-03-02T12:55:42.608Z,77.80
2023-03-02T12:58:24.991Z,76.10
2023-03-02T13:00:57.004Z,77.40
2023-03-02T13:03:26.502Z,76.60
2023-03-02T13:06:15.564Z,75.70
2023-03-02T13:08:46.082Z,76.80
2023-03-02T13:11:13.915Z,76.60
2023-03-02T13:13:44.202Z,74.80
2023-03-02T13:16:31.766Z,76.40
2023-03-02T13:19:01.981Z,75.80
2023-03-02T13:21:35.583Z,75.30
2023-03-02T13:24:03.569Z,76.20
2023-03-02T13:26:34.952Z,74.00
2023-03-02T13:29:20.801Z,75.40
2023-03-02T13:31:48.837Z,76.00
2023-03-02T13:34:28.940Z,73.80
2023-03-02T13:36:57.239Z,74.40
2023-03-02T13:39:29.952Z,73.40
2023-03-02T13:42:02.518Z,75.10
2023-03-02T13:44:32.777Z,74.70
2023-03-02T13:47:01.185Z,74.20
2023-03-02T13:49:37.506Z,73.30
2023-03-02T13:52:08.285Z,74.60
2023-03-02T13:54:37.603Z,73.30
2023-03-02T13:57:06.106Z,73.70
2023-03-02T13:59:36.427Z,74.20
2023-03-02T14:02:19.792Z,73.60
2023-03-02T14:04:47.378Z,74.50
2023-03-02T14:07:14.925Z,72.50
2023-03-02T14:09:42.363Z,72.70
2023-03-02T14:12:32.928Z,72.30
2023-03-02T14:15:03.427Z,73.50
2023-03-02T14:17:30.933Z,73.90
2023-03-02T14:19:58.389Z,72.40
2023-03-02T14:22:27.326Z,72.60
2023-03-02T14:24:54.795Z,73.30
2023-03-02T14:27:30.496Z,72.60
2023-03-02T14:29:58.441Z,74.10
2023-03-02T14:32:26.005Z,73.20
2023-03-02T14:34:53.511Z,73.60
2023-03-02T14:37:24.389Z,73.50
2023-03-02T14:39:55.336Z,73.60
2023-03-02T14:42:23.810Z,71.20
2023-03-02T14:44:52.508Z,69.80
2023-03-02T14:47:21.805Z,68.70
2023-03-02T14:49:49.617Z,66.60
2023-03-02T14:52:23.695Z,65.40
2023-03-02T14:54:54.905Z,67.00
2023-03-02T14:57:25.461Z,67.70
2023-03-02T14:59:54.810Z,68.50
2023-03-02T15:02:26.934Z,68.80
2023-03-02T15:04:57.844Z,70.00
2023-03-02T15:07:30.080Z,68.80
2023-03-02T15:09:58.038Z,66.80
2023-03-02T15:12:26.130Z,66.50
2023-03-02T15:14:54.185Z,67.10
2023-03-02T15:17:21.674Z,67.10
2023-03-02T15:19:49.104Z,67.70
2023-03-02T15:22:16.601Z,68.00
2023-03-02T15:24:43.975Z,68.40
2023-03-02T15:27:11.346Z,68.90
2023-03-02T15:29:38.911Z,69.10
2023-03-02T15:32:06.426Z,69.30
2023-03-02T15:34:33.835Z,69.20
2023-03-02T15:37:01.266Z,70.30
2023-03-02T15:39:28.630Z,69.70
2023-03-02T15:41:55.972Z,70.30
2023-03-02T15:44:25.007Z,70.50
2023-03-02T15:46:58.051Z,72.00
2023-03-02T15:49:28.710Z,73.70
2023-03-02T15:51:57.745Z,72.00
2023-03-02T15:54:28.959Z,72.50
2023-03-02T15:56:56.617Z,72.30
2023-03-02T15:59:26.653Z,73.30
2023-03-02T16:01:59.287Z,73.40
2023-03-02T16:04:28.753Z,72.60
2023-03-02T16:06:56.843Z,74.20
2023-03-02T16:09:25.854Z,72.70
2023-03-02T16:11:53.257Z,73.60
2023-03-02T16:14:20.632Z,73.40
2023-03-02T16:16:48.657Z,72.80
2023-03-02T16:19:19.118Z,73.40
2023-03-02T16:21:47.837Z,73.80
2023-03-02T16:24:17.015Z,73.90
2023-03-02T16:26:45.047Z,73.70
2023-03-02T16:29:14.136Z,73.80
2023-03-02T16:31:42.422Z,74.40
2023-03-02T16:34:11.529Z,73.60
2023-03-02T16:36:40.897Z,75.10
2023-03-02T16:39:11.053Z,74.70
2023-03-02T16:41:40.491Z,75.30
2023-03-02T16:44:08.300Z,74.90
2023-03-02T16:46:40.302Z,74.20
2023-03-02T16:49:07.856Z,75.30
2023-03-02T16:51:35.586Z,74.70
2023-03-02T16:54:04.123Z,75.20
2023-03-02T16:56:31.933Z,74.90
2023-03-02T16:59:00.326Z,74.60
2023-03-02T17:01:28.473Z,74.50
2023-03-02T17:03:56.646Z,75.20
2023-03-02T17:06:24.721Z,76.40
2023-03-02T17:08:52.401Z,75.80
2023-03-02T17:11:20.217Z,75.30
2023-03-02T17:13:47.799Z,76.40
2023-03-02T17:16:16.787Z,75.50
2023-03-02T17:18:47.372Z,75.60
2023-03-02T17:21:17.308Z,75.50
2023-03-02T17:23:48.013Z,77.30
2023-03-02T17:26:17.215Z,75.80
2023-03-02T17:28:44.753Z,76.50
2023-03-02T17:31:12.405Z,76.10
2023-03-02T17:33:39.988Z,75.70
2023-03-02T17:36:11.965Z,76.10
2023-03-02T17:38:39.978Z,77.20
2023-03-02T17:41:09.173Z,76.80
2023-03-02T17:43:38.665Z,76.90
2023-03-02T17:46:20.483Z,76.60
2023-03-02T17:48:49.959Z,79.20
2023-03-02T17:51:17.857Z,76.70
2023-03-02T17:53:46.655Z,76.70
2023-03-02T17:56:18.954Z,78.40
2023-03-02T17:58:46.792Z,77.60
2023-03-02T18:01:15.983Z,76.40
2023-03-02T18:03:45.191Z,77.30
2023-03-02T18:06:13.654Z,77.10
2023-03-02T18:08:41.084Z,77.30
2023-03-02T18:11:08.586Z,77.50
2023-03-02T18:13:37.600Z,77.50
2023-03-02T18:16:05.260Z,76.30
2023-03-02T18:18:32.985Z,77.30
2023-03-02T18:21:00.841Z,77.60
2023-03-02T18:23:28.590Z,78.60
2023-03-02T18:25:56.267Z,77.10
2023-03-02T18:28:23.850Z,77.60
2023-03-02T18:30:51.266Z,77.80
2023-03-02T18:33:18.765Z,77.90
2023-03-02T18:35:46.345Z,78.40
2023-03-02T18:38:13.685Z,78.20
2023-03-02T18:40:41.129Z,78.20
2023-03-02T18:43:10.234Z,77.80
2023-03-02T18:45:37.978Z,80.10
2023-03-02T18:48:06.271Z,78.30
2023-03-02T18:50:33.781Z,78.30
2023-03-02T18:53:01.264Z,78.50
2023-03-02T18:55:28.687Z,78.30
2023-03-02T18:57:56.235Z,78.20
2023-03-02T19:00:27.946Z,78.30
2023-03-02T19:02:56.835Z,79.70
2023-03-02T19:05:27.002Z,79.40
2023-03-02T19:07:54.881Z,78.70
2023-03-02T19:10:22.412Z,78.60
2023-03-02T19:12:50.612Z,79.10
2023-03-02T19:15:19.956Z,78.90
2023-03-02T19:17:51.210Z,78.20
2023-03-02T19:20:21.232Z,79.70
2023-03-02T19:22:50.374Z,80.50
2023-03-02T19:25:19.229Z,78.50
2023-03-02T19:27:48.457Z,79.70
2023-03-02T19:30:22.985Z,80.80
2023-03-02T19:32:54.011Z,81.20
2023-03-02T19:35:25.085Z,80.60
2023-03-02T19:37:53.103Z,79.70
2023-03-02T19:40:24.972Z,80.70
2023-03-02T19:42:56.721Z,81.20
2023-03-02T19:45:29.076Z,80.30
2023-03-02T19:47:57.910Z,80.80
2023-03-02T19:50:27.975Z,80.70
2023-03-02T19:52:56.825Z,80.70
2023-03-02T19:55:26.019Z,80.90
2023-03-02T19:58:00.448Z,80.70
2023-03-02T20:00:31.072Z,80.60
2023-03-02T20:02:59.686Z,81.70
2023-03-02T20:05:27.759Z,81.00
2023-03-02T20:07:55.619Z,80.60
2023-03-02T20:10:31.644Z,81.00
2023-03-02T20:13:00.376Z,81.90
2023-03-02T20:15:28.611Z,81.50
2023-03-02T20:17:56.681Z,82.10
2023-03-02T20:20:26.894Z,81.60
2023-03-02T20:22:54.375Z,81.30
2023-03-02T20:25:22.017Z,80.90
2023-03-02T20:27:51.787Z,82.30
2023-03-02T20:30:27.990Z,82.50
2023-03-02T20:32:57.261Z,83.20
2023-03-02T20:35:26.420Z,83.30
2023-03-02T20:37:55.914Z,82.80
2023-03-02T20:40:25.181Z,83.90
2023-03-02T20:42:52.794Z,82.70
2023-03-02T20:45:20.840Z,82.30
2023-03-02T20:47:49.066Z,82.90
2023-03-02T20:50:20.677Z,82.60
2023-03-02T20:52:51.906Z,84.20
2023-03-02T20:55:22.000Z,82.20
2023-03-02T20:57:49.686Z,83.90
2023-03-02T21:00:27.317Z,82.90
2023-03-02T21:02:59.724Z,84.60
2023-03-02T21:05:27.982Z,83.10
2023-03-02T21:07:56.530Z,83.70
2023-03-02T21:10:29.130Z,83.90
2023-03-02T21:12:56.954Z,84.80
2023-03-02T21:15:27.211Z,82.80
2023-03-02T21:17:55.687Z,83.20
2023-03-02T21:20:32.036Z,83.60
2023-03-02T21:22:59.800Z,84.50
2023-03-02T21:25:27.592Z,83.30
2023-03-02T21:27:56.134Z,83.90
2023-03-02T21:30:29.618Z,85.20
2023-03-02T21:32:57.608Z,85.20
2023-03-02T21:35:24.954Z,84.70
2023-03-02T21:37:57.244Z,84.10
2023-03-02T21:40:32.135Z,85.70
2023-03-02T21:43:00.550Z,86.00
2023-03-02T21:45:29.246Z,84.70
2023-03-02T21:47:56.994Z,85.50
2023-03-02T21:50:28.045Z,83.70
2023-03-02T21:52:55.988Z,85.40
2023-03-02T21:55:23.458Z,84.50
2023-03-02T21:57:50.793Z,84.60
2023-03-02T22:00:34.004Z,84.80
2023-03-02T22:03:02.725Z,86.80
2023-03-02T22:05:31.316Z,85.10
2023-03-02T22:07:59.450Z,85.10
2023-03-02T22:10:34.590Z,86.00
2023-03-02T22:13:17.409Z,87.00
2023-03-02T22:15:45.926Z,87.00
2023-03-02T22:18:19.390Z,85.60
2023-03-02T22:20:49.434Z,85.90
2023-03-02T22:23:22.406Z,86.50
2023-03-02T22:25:52.959Z,88.30
2023-03-02T22:28:22.766Z,87.00
2023-03-02T22:30:52.239Z,86.50
2023-03-02T22:33:25.774Z,86.90
2023-03-02T22:36:04.490Z,87.50
2023-03-02T22:38:31.935Z,87.00
2023-03-02T22:40:59.327Z,85.60
2023-03-02T22:43:30.973Z,86.20
2023-03-02T22:46:20.600Z,87.10
2023-03-02T22:48:50.652Z,88.60
2023-03-02T22:51:20.852Z,86.90
2023-03-02T22:53:56.876Z,88.30
2023-03-02T22:56:34.132Z,87.20
2023-03-02T22:59:23.512Z,87.90
2023-03-02T23:01:52.826Z,88.60
2023-03-02T23:04:36.910Z,86.80
2023-03-02T23:07:16.052Z,88.80
2023-03-02T23:09:43.525Z,87.90
2023-03-02T23:12:29.081Z,86.30
2023-03-02T23:14:58.708Z,88.20
2023-03-02T23:17:36.407Z,86.70
2023-03-02T23:20:06.756Z,85.20
2023-03-02T23:22:35.116Z,87.20
2023-03-02T23:25:03.619Z,85.80
2023-03-02T23:27:31.048Z,86.00
2023-03-02T23:29:58.457Z,86.30
2023-03-02T23:32:26.194Z,86.10
2023-03-02T23:34:53.665Z,86.10
2023-03-02T23:37:21.081Z,86.40
2023-03-02T23:39:48.569Z,86.10
2023-03-02T23:42:16.164Z,86.10
2023-03-02T23:44:44.621Z,86.60
2023-03-02T23:47:12.286Z,86.10
2023-03-02T23:49:39.830Z,86.70
2023-03-02T23:52:07.250Z,86.30
2023-03-02T23:54:34.627Z,86.10
2023-03-02T23:57:02.109Z,87.00
2023-03-02T23:59:29.614Z,86.20
